sensor_id;sensor_type;location;lat;lon;timestamp;temperature;humidity
15156;DHT22;7678;50.058;8.306;2023-06-01T00:00:22;17.20;69.30
15156;DHT22;7678;50.058;8.306;2023-06-01T00:02:50;17.20;69.10
15156;DHT22;7678;50.058;8.306;2023-06-01T00:05:18;17.40;70.70
15156;DHT22;7678;50.058;8.306;2023-06-01T00:07:46;17.30;71.00
15156;DHT22;7678;50.058;8.306;2023-06-01T00:10:14;17.40;70.20
15156;DHT22;7678;50.058;8.306;2023-06-01T00:12:45;17.40;69.50
15156;DHT22;7678;50.058;8.306;2023-06-01T00:15:13;17.50;68.60
15156;DHT22;7678;50.058;8.306;2023-06-01T00:17:43;17.60;69.10
15156;DHT22;7678;50.058;8.306;2023-06-01T00:20:11;17.40;68.70
15156;DHT22;7678;50.058;8.306;2023-06-01T00:22:39;17.40;69.10
15156;DHT22;7678;50.058;8.306;2023-06-01T00:25:08;17.20;69.20
15156;DHT22;7678;50.058;8.306;2023-06-01T00:27:36;17.20;69.60
15156;DHT22;7678;50.058;8.306;2023-06-01T00:30:05;17.10;69.60
15156;DHT22;7678;50.058;8.306;2023-06-01T00:32:33;17.30;70.60
15156;DHT22;7678;50.058;8.306;2023-06-01T00:35:03;17.30;70.10
15156;DHT22;7678;50.058;8.306;2023-06-01T00:37:31;17.10;69.90
15156;DHT22;7678;50.058;8.306;2023-06-01T00:39:59;17.00;70.60
15156;DHT22;7678;50.058;8.306;2023-06-01T00:42:27;17.00;71.30
15156;DHT22;7678;50.058;8.306;2023-06-01T00:44:55;17.00;71.30
15156;DHT22;7678;50.058;8.306;2023-06-01T00:47:25;16.90;71.70
15156;DHT22;7678;50.058;8.306;2023-06-01T00:49:54;16.90;71.70
15156;DHT22;7678;50.058;8.306;2023-06-01T00:52:23;16.90;72.20
15156;DHT22;7678;50.058;8.306;2023-06-01T00:54:52;16.90;72.30
15156;DHT22;7678;50.058;8.306;2023-06-01T00:57:24;16.90;71.70
15156;DHT22;7678;50.058;8.306;2023-06-01T00:59:53;17.00;71.60
15156;DHT22;7678;50.058;8.306;2023-06-01T01:02:22;17.00;71.40
15156;DHT22;7678;50.058;8.306;2023-06-01T01:04:50;17.00;71.70
15156;DHT22;7678;50.058;8.306;2023-06-01T01:07:28;17.00;71.30
15156;DHT22;7678;50.058;8.306;2023-06-01T01:10:05;17.00;71.40
15156;DHT22;7678;50.058;8.306;2023-06-01T01:12:45;16.90;71.60
15156;DHT22;7678;50.058;8.306;2023-06-01T01:15:22;16.80;71.70
15156;DHT22;7678;50.058;8.306;2023-06-01T01:17:54;16.90;72.10
15156;DHT22;7678;50.058;8.306;2023-06-01T01:20:31;16.80;72.40
15156;DHT22;7678;50.058;8.306;2023-06-01T01:23:09;16.80;73.50
15156;DHT22;7678;50.058;8.306;2023-06-01T01:25:59;16.70;73.90
15156;DHT22;7678;50.058;8.306;2023-06-01T01:28:42;16.70;75.20
15156;DHT22;7678;50.058;8.306;2023-06-01T01:31:13;16.70;75.40
15156;DHT22;7678;50.058;8.306;2023-06-01T01:33:42;16.60;75.50
15156;DHT22;7678;50.058;8.306;2023-06-01T01:36:12;16.50;76.10
15156;DHT22;7678;50.058;8.306;2023-06-01T01:38:40;16.60;76.40
15156;DHT22;7678;50.058;8.306;2023-06-01T01:41:08;16.70;76.40
15156;DHT22;7678;50.058;8.306;2023-06-01T01:43:38;16.80;76.70
15156;DHT22;7678;50.058;8.306;2023-06-01T01:46:14;16.80;76.20
15156;DHT22;7678;50.058;8.306;2023-06-01T01:48:50;16.70;77.50
15156;DHT22;7678;50.058;8.306;2023-06-01T01:51:24;16.60;78.40
15156;DHT22;7678;50.058;8.306;2023-06-01T01:53:55;16.50;78.30
15156;DHT22;7678;50.058;8.306;2023-06-01T01:56:24;16.60;78.90
15156;DHT22;7678;50.058;8.306;2023-06-01T01:58:55;16.40;79.70
15156;DHT22;7678;50.058;8.306;2023-06-01T02:01:23;16.30;81.10
15156;DHT22;7678;50.058;8.306;2023-06-01T02:03:59;16.30;82.10
15156;DHT22;7678;50.058;8.306;2023-06-01T02:06:27;16.30;82.00
15156;DHT22;7678;50.058;8.306;2023-06-01T02:08:55;16.30;82.60
15156;DHT22;7678;50.058;8.306;2023-06-01T02:11:23;16.20;83.70
15156;DHT22;7678;50.058;8.306;2023-06-01T02:13:52;16.10;85.10
15156;DHT22;7678;50.058;8.306;2023-06-01T02:16:21;15.80;87.10
15156;DHT22;7678;50.058;8.306;2023-06-01T02:18:49;15.80;88.60
15156;DHT22;7678;50.058;8.306;2023-06-01T02:21:19;15.70;90.20
15156;DHT22;7678;50.058;8.306;2023-06-01T02:23:47;15.60;90.50
15156;DHT22;7678;50.058;8.306;2023-06-01T02:26:15;15.60;90.70
15156;DHT22;7678;50.058;8.306;2023-06-01T02:28:43;15.70;90.90
15156;DHT22;7678;50.058;8.306;2023-06-01T02:31:12;15.70;91.10
15156;DHT22;7678;50.058;8.306;2023-06-01T02:33:42;15.60;91.50
15156;DHT22;7678;50.058;8.306;2023-06-01T02:36:10;15.60;91.60
15156;DHT22;7678;50.058;8.306;2023-06-01T02:38:38;15.70;91.80
15156;DHT22;7678;50.058;8.306;2023-06-01T02:41:06;15.60;92.20
15156;DHT22;7678;50.058;8.306;2023-06-01T02:43:34;15.70;92.30
15156;DHT22;7678;50.058;8.306;2023-06-01T02:46:03;15.60;92.50
15156;DHT22;7678;50.058;8.306;2023-06-01T02:48:31;15.60;92.30
15156;DHT22;7678;50.058;8.306;2023-06-01T02:51:01;15.60;92.80
15156;DHT22;7678;50.058;8.306;2023-06-01T02:53:29;15.60;92.70
15156;DHT22;7678;50.058;8.306;2023-06-01T02:55:58;15.60;92.70
15156;DHT22;7678;50.058;8.306;2023-06-01T02:58:26;15.60;92.60
15156;DHT22;7678;50.058;8.306;2023-06-01T03:00:56;15.70;92.40
15156;DHT22;7678;50.058;8.306;2023-06-01T03:03:25;15.60;92.40
15156;DHT22;7678;50.058;8.306;2023-06-01T03:05:54;15.60;92.70
15156;DHT22;7678;50.058;8.306;2023-06-01T03:08:25;15.60;92.30
15156;DHT22;7678;50.058;8.306;2023-06-01T03:10:53;15.60;92.20
15156;DHT22;7678;50.058;8.306;2023-06-01T03:13:21;15.70;92.40
15156;DHT22;7678;50.058;8.306;2023-06-01T03:15:49;15.70;92.10
15156;DHT22;7678;50.058;8.306;2023-06-01T03:18:18;15.60;92.30
15156;DHT22;7678;50.058;8.306;2023-06-01T03:20:46;15.60;92.30
15156;DHT22;7678;50.058;8.306;2023-06-01T03:23:15;15.50;92.40
15156;DHT22;7678;50.058;8.306;2023-06-01T03:25:45;15.60;92.40
15156;DHT22;7678;50.058;8.306;2023-06-01T03:28:13;15.60;92.30
15156;DHT22;7678;50.058;8.306;2023-06-01T03:30:41;15.60;92.40
15156;DHT22;7678;50.058;8.306;2023-06-01T03:33:09;15.60;92.60
15156;DHT22;7678;50.058;8.306;2023-06-01T03:35:38;15.60;92.50
15156;DHT22;7678;50.058;8.306;2023-06-01T03:38:07;15.60;92.80
15156;DHT22;7678;50.058;8.306;2023-06-01T03:40:35;15.60;92.80
15156;DHT22;7678;50.058;8.306;2023-06-01T03:43:04;15.60;92.70
15156;DHT22;7678;50.058;8.306;2023-06-01T03:45:33;15.60;92.70
15156;DHT22;7678;50.058;8.306;2023-06-01T03:48:01;15.60;92.50
15156;DHT22;7678;50.058;8.306;2023-06-01T03:50:30;15.60;92.60
15156;DHT22;7678;50.058;8.306;2023-06-01T03:52:58;15.60;92.60
15156;DHT22;7678;50.058;8.306;2023-06-01T03:55:26;15.70;92.80
15156;DHT22;7678;50.058;8.306;2023-06-01T03:57:56;15.70;93.10
15156;DHT22;7678;50.058;8.306;2023-06-01T04:00:26;15.60;93.20
15156;DHT22;7678;50.058;8.306;2023-06-01T04:02:56;15.60;93.20
15156;DHT22;7678;50.058;8.306;2023-06-01T04:05:25;15.60;93.40
15156;DHT22;7678;50.058;8.306;2023-06-01T04:07:54;15.60;93.40
15156;DHT22;7678;50.058;8.306;2023-06-01T04:10:23;15.70;93.40
15156;DHT22;7678;50.058;8.306;2023-06-01T04:12:51;15.70;93.20
15156;DHT22;7678;50.058;8.306;2023-06-01T04:15:20;15.80;93.00
15156;DHT22;7678;50.058;8.306;2023-06-01T04:17:49;15.90;93.00
15156;DHT22;7678;50.058;8.306;2023-06-01T04:20:17;15.80;92.90
15156;DHT22;7678;50.058;8.306;2023-06-01T04:22:46;15.90;93.70
15156;DHT22;7678;50.058;8.306;2023-06-01T04:25:15;15.90;93.90
15156;DHT22;7678;50.058;8.306;2023-06-01T04:27:48;15.80;94.30
15156;DHT22;7678;50.058;8.306;2023-06-01T04:30:18;15.70;95.30
15156;DHT22;7678;50.058;8.306;2023-06-01T04:32:48;15.60;96.10
15156;DHT22;7678;50.058;8.306;2023-06-01T04:35:16;15.70;96.60
15156;DHT22;7678;50.058;8.306;2023-06-01T04:37:44;15.60;97.80
15156;DHT22;7678;50.058;8.306;2023-06-01T04:40:13;15.50;98.50
15156;DHT22;7678;50.058;8.306;2023-06-01T04:42:42;15.50;98.30
15156;DHT22;7678;50.058;8.306;2023-06-01T04:45:15;15.70;97.10
15156;DHT22;7678;50.058;8.306;2023-06-01T04:47:45;15.90;96.60
15156;DHT22;7678;50.058;8.306;2023-06-01T04:50:15;16.00;96.40
15156;DHT22;7678;50.058;8.306;2023-06-01T04:52:44;16.10;96.20
15156;DHT22;7678;50.058;8.306;2023-06-01T04:55:12;16.10;96.70
15156;DHT22;7678;50.058;8.306;2023-06-01T04:57:40;16.10;96.70
15156;DHT22;7678;50.058;8.306;2023-06-01T05:00:11;16.30;97.00
15156;DHT22;7678;50.058;8.306;2023-06-01T05:02:41;16.40;97.10
15156;DHT22;7678;50.058;8.306;2023-06-01T05:05:11;16.50;95.60
15156;DHT22;7678;50.058;8.306;2023-06-01T05:07:41;16.60;95.00
15156;DHT22;7678;50.058;8.306;2023-06-01T05:10:10;16.70;95.80
15156;DHT22;7678;50.058;8.306;2023-06-01T05:12:38;16.70;96.80
15156;DHT22;7678;50.058;8.306;2023-06-01T05:15:08;16.70;95.90
15156;DHT22;7678;50.058;8.306;2023-06-01T05:17:37;16.60;96.00
15156;DHT22;7678;50.058;8.306;2023-06-01T05:20:07;16.60;94.60
15156;DHT22;7678;50.058;8.306;2023-06-01T05:22:36;16.80;94.10
15156;DHT22;7678;50.058;8.306;2023-06-01T05:25:06;16.80;94.60
15156;DHT22;7678;50.058;8.306;2023-06-01T05:27:35;16.90;94.30
15156;DHT22;7678;50.058;8.306;2023-06-01T05:30:04;17.00;94.90
15156;DHT22;7678;50.058;8.306;2023-06-01T05:32:33;17.10;94.60
15156;DHT22;7678;50.058;8.306;2023-06-01T05:35:01;17.20;94.40
15156;DHT22;7678;50.058;8.306;2023-06-01T05:37:31;17.20;94.90
15156;DHT22;7678;50.058;8.306;2023-06-01T05:39:59;17.30;94.80
15156;DHT22;7678;50.058;8.306;2023-06-01T05:42:28;17.40;95.40
15156;DHT22;7678;50.058;8.306;2023-06-01T05:44:56;17.60;95.10
15156;DHT22;7678;50.058;8.306;2023-06-01T05:47:24;17.60;94.20
15156;DHT22;7678;50.058;8.306;2023-06-01T05:49:52;17.70;94.10
15156;DHT22;7678;50.058;8.306;2023-06-01T05:52:20;17.90;94.70
15156;DHT22;7678;50.058;8.306;2023-06-01T05:54:51;18.00;93.30
15156;DHT22;7678;50.058;8.306;2023-06-01T05:57:20;18.00;93.50
15156;DHT22;7678;50.058;8.306;2023-06-01T05:59:50;18.00;93.80
15156;DHT22;7678;50.058;8.306;2023-06-01T06:02:20;18.10;93.60
15156;DHT22;7678;50.058;8.306;2023-06-01T06:04:48;18.10;93.80
15156;DHT22;7678;50.058;8.306;2023-06-01T06:07:16;18.20;92.70
15156;DHT22;7678;50.058;8.306;2023-06-01T06:09:44;18.20;91.80
15156;DHT22;7678;50.058;8.306;2023-06-01T06:12:12;18.30;92.00
15156;DHT22;7678;50.058;8.306;2023-06-01T06:14:40;18.40;91.30
15156;DHT22;7678;50.058;8.306;2023-06-01T06:17:10;18.40;91.00
15156;DHT22;7678;50.058;8.306;2023-06-01T06:19:38;18.50;90.90
15156;DHT22;7678;50.058;8.306;2023-06-01T06:22:06;18.60;91.20
15156;DHT22;7678;50.058;8.306;2023-06-01T06:24:34;18.70;90.60
15156;DHT22;7678;50.058;8.306;2023-06-01T06:27:02;18.70;90.30
15156;DHT22;7678;50.058;8.306;2023-06-01T06:29:30;18.70;90.80
15156;DHT22;7678;50.058;8.306;2023-06-01T06:31:58;18.80;90.90
15156;DHT22;7678;50.058;8.306;2023-06-01T06:34:28;18.90;89.80
15156;DHT22;7678;50.058;8.306;2023-06-01T06:37:03;19.00;90.20
15156;DHT22;7678;50.058;8.306;2023-06-01T06:39:32;19.10;89.00
15156;DHT22;7678;50.058;8.306;2023-06-01T06:42:00;19.10;88.70
15156;DHT22;7678;50.058;8.306;2023-06-01T06:44:29;19.10;90.40
15156;DHT22;7678;50.058;8.306;2023-06-01T06:46:58;19.30;87.50
15156;DHT22;7678;50.058;8.306;2023-06-01T06:49:30;19.40;90.30
15156;DHT22;7678;50.058;8.306;2023-06-01T06:51:58;19.40;89.60
15156;DHT22;7678;50.058;8.306;2023-06-01T06:54:26;19.70;89.00
15156;DHT22;7678;50.058;8.306;2023-06-01T06:56:54;19.60;87.90
15156;DHT22;7678;50.058;8.306;2023-06-01T06:59:22;19.60;86.00
15156;DHT22;7678;50.058;8.306;2023-06-01T07:01:53;19.80;85.10
15156;DHT22;7678;50.058;8.306;2023-06-01T07:04:21;19.80;80.90
15156;DHT22;7678;50.058;8.306;2023-06-01T07:06:50;19.80;81.60
15156;DHT22;7678;50.058;8.306;2023-06-01T07:09:18;19.90;82.90
15156;DHT22;7678;50.058;8.306;2023-06-01T07:11:47;20.00;82.50
15156;DHT22;7678;50.058;8.306;2023-06-01T07:14:15;19.90;80.80
15156;DHT22;7678;50.058;8.306;2023-06-01T07:16:43;19.90;81.40
15156;DHT22;7678;50.058;8.306;2023-06-01T07:19:12;20.00;79.10
15156;DHT22;7678;50.058;8.306;2023-06-01T07:21:40;20.00;83.40
15156;DHT22;7678;50.058;8.306;2023-06-01T07:24:09;20.20;85.10
15156;DHT22;7678;50.058;8.306;2023-06-01T07:26:37;20.10;80.40
15156;DHT22;7678;50.058;8.306;2023-06-01T07:29:07;20.10;79.30
15156;DHT22;7678;50.058;8.306;2023-06-01T07:31:36;20.10;82.40
15156;DHT22;7678;50.058;8.306;2023-06-01T07:34:05;20.20;83.60
15156;DHT22;7678;50.058;8.306;2023-06-01T07:36:33;20.20;81.70
15156;DHT22;7678;50.058;8.306;2023-06-01T07:39:04;20.20;82.80
15156;DHT22;7678;50.058;8.306;2023-06-01T07:41:37;20.30;81.60
15156;DHT22;7678;50.058;8.306;2023-06-01T07:44:06;20.50;81.90
15156;DHT22;7678;50.058;8.306;2023-06-01T07:46:34;20.50;82.00
15156;DHT22;7678;50.058;8.306;2023-06-01T07:49:02;20.50;82.30
15156;DHT22;7678;50.058;8.306;2023-06-01T07:51:30;20.50;82.70
15156;DHT22;7678;50.058;8.306;2023-06-01T07:53:58;20.70;82.20
15156;DHT22;7678;50.058;8.306;2023-06-01T07:56:27;20.90;83.00
15156;DHT22;7678;50.058;8.306;2023-06-01T07:58:56;21.00;82.80
15156;DHT22;7678;50.058;8.306;2023-06-01T08:01:24;21.20;80.80
15156;DHT22;7678;50.058;8.306;2023-06-01T08:03:53;21.20;80.00
15156;DHT22;7678;50.058;8.306;2023-06-01T08:06:22;21.20;78.90
15156;DHT22;7678;50.058;8.306;2023-06-01T08:08:51;21.30;80.00
15156;DHT22;7678;50.058;8.306;2023-06-01T08:11:20;21.30;79.60
15156;DHT22;7678;50.058;8.306;2023-06-01T08:13:50;21.20;79.00
15156;DHT22;7678;50.058;8.306;2023-06-01T08:16:19;21.30;80.10
15156;DHT22;7678;50.058;8.306;2023-06-01T08:18:49;21.20;78.70
15156;DHT22;7678;50.058;8.306;2023-06-01T08:21:17;21.40;80.80
15156;DHT22;7678;50.058;8.306;2023-06-01T08:23:46;21.40;78.70
15156;DHT22;7678;50.058;8.306;2023-06-01T08:26:15;21.40;77.50
15156;DHT22;7678;50.058;8.306;2023-06-01T08:28:43;21.70;78.00
15156;DHT22;7678;50.058;8.306;2023-06-01T08:31:20;21.60;77.70
15156;DHT22;7678;50.058;8.306;2023-06-01T08:33:49;21.60;76.20
15156;DHT22;7678;50.058;8.306;2023-06-01T08:36:18;21.80;77.60
15156;DHT22;7678;50.058;8.306;2023-06-01T08:38:46;22.00;77.60
15156;DHT22;7678;50.058;8.306;2023-06-01T08:41:18;22.00;77.00
15156;DHT22;7678;50.058;8.306;2023-06-01T08:43:53;21.90;75.90
15156;DHT22;7678;50.058;8.306;2023-06-01T08:46:23;21.90;76.50
15156;DHT22;7678;50.058;8.306;2023-06-01T08:48:53;22.10;75.70
15156;DHT22;7678;50.058;8.306;2023-06-01T08:51:23;22.10;73.20
15156;DHT22;7678;50.058;8.306;2023-06-01T08:53:53;22.10;74.70
15156;DHT22;7678;50.058;8.306;2023-06-01T08:56:22;21.90;73.60
15156;DHT22;7678;50.058;8.306;2023-06-01T08:58:52;22.10;74.80
15156;DHT22;7678;50.058;8.306;2023-06-01T09:01:22;22.40;71.90
15156;DHT22;7678;50.058;8.306;2023-06-01T09:03:51;22.50;73.10
15156;DHT22;7678;50.058;8.306;2023-06-01T09:06:19;22.40;71.70
15156;DHT22;7678;50.058;8.306;2023-06-01T09:08:48;22.30;70.50
15156;DHT22;7678;50.058;8.306;2023-06-01T09:11:19;22.30;69.90
15156;DHT22;7678;50.058;8.306;2023-06-01T09:13:47;22.30;73.10
15156;DHT22;7678;50.058;8.306;2023-06-01T09:16:16;22.60;72.80
15156;DHT22;7678;50.058;8.306;2023-06-01T09:18:54;22.90;70.80
15156;DHT22;7678;50.058;8.306;2023-06-01T09:21:22;22.60;69.30
15156;DHT22;7678;50.058;8.306;2023-06-01T09:23:50;22.70;67.80
15156;DHT22;7678;50.058;8.306;2023-06-01T09:26:26;22.90;64.40
15156;DHT22;7678;50.058;8.306;2023-06-01T09:28:57;22.90;64.00
15156;DHT22;7678;50.058;8.306;2023-06-01T09:31:36;22.90;59.20
15156;DHT22;7678;50.058;8.306;2023-06-01T09:34:06;23.00;64.80
15156;DHT22;7678;50.058;8.306;2023-06-01T09:36:37;23.00;66.50
15156;DHT22;7678;50.058;8.306;2023-06-01T09:39:07;23.10;65.20
15156;DHT22;7678;50.058;8.306;2023-06-01T09:41:49;23.10;64.10
15156;DHT22;7678;50.058;8.306;2023-06-01T09:44:25;23.30;66.00
15156;DHT22;7678;50.058;8.306;2023-06-01T09:46:55;23.50;62.80
15156;DHT22;7678;50.058;8.306;2023-06-01T09:49:26;23.60;65.10
15156;DHT22;7678;50.058;8.306;2023-06-01T09:52:09;23.50;63.80
15156;DHT22;7678;50.058;8.306;2023-06-01T09:54:41;23.70;64.70
15156;DHT22;7678;50.058;8.306;2023-06-01T09:57:10;23.80;64.20
15156;DHT22;7678;50.058;8.306;2023-06-01T09:59:41;23.60;64.80
15156;DHT22;7678;50.058;8.306;2023-06-01T10:02:12;23.50;65.70
15156;DHT22;7678;50.058;8.306;2023-06-01T10:04:47;23.30;63.80
15156;DHT22;7678;50.058;8.306;2023-06-01T10:07:17;23.30;64.00
15156;DHT22;7678;50.058;8.306;2023-06-01T10:09:50;23.50;63.60
15156;DHT22;7678;50.058;8.306;2023-06-01T10:12:18;23.50;61.90
15156;DHT22;7678;50.058;8.306;2023-06-01T10:14:47;23.90;63.00
15156;DHT22;7678;50.058;8.306;2023-06-01T10:17:17;24.10;61.80
15156;DHT22;7678;50.058;8.306;2023-06-01T10:19:48;23.60;59.30
15156;DHT22;7678;50.058;8.306;2023-06-01T10:22:16;23.80;60.60
15156;DHT22;7678;50.058;8.306;2023-06-01T10:24:44;23.90;61.10
15156;DHT22;7678;50.058;8.306;2023-06-01T10:27:18;24.00;61.20
15156;DHT22;7678;50.058;8.306;2023-06-01T10:29:48;24.20;59.90
15156;DHT22;7678;50.058;8.306;2023-06-01T10:32:41;24.30;61.90
15156;DHT22;7678;50.058;8.306;2023-06-01T10:38:32;24.10;59.30
15156;DHT22;7678;50.058;8.306;2023-06-01T10:41:26;24.30;58.10
15156;DHT22;7678;50.058;8.306;2023-06-01T10:43:55;24.20;58.90
15156;DHT22;7678;50.058;8.306;2023-06-01T10:46:48;24.50;60.60
15156;DHT22;7678;50.058;8.306;2023-06-01T10:49:17;24.70;58.50
15156;DHT22;7678;50.058;8.306;2023-06-01T10:51:46;24.50;59.80
15156;DHT22;7678;50.058;8.306;2023-06-01T10:54:28;24.70;57.40
15156;DHT22;7678;50.058;8.306;2023-06-01T10:57:22;24.50;57.20
15156;DHT22;7678;50.058;8.306;2023-06-01T11:00:11;24.90;57.20
15156;DHT22;7678;50.058;8.306;2023-06-01T11:02:48;25.10;58.10
15156;DHT22;7678;50.058;8.306;2023-06-01T11:05:35;25.40;57.20
15156;DHT22;7678;50.058;8.306;2023-06-01T11:08:06;25.00;57.10
15156;DHT22;7678;50.058;8.306;2023-06-01T11:10:54;24.80;56.90
15156;DHT22;7678;50.058;8.306;2023-06-01T11:14:06;25.00;57.60
15156;DHT22;7678;50.058;8.306;2023-06-01T11:16:43;25.60;55.90
15156;DHT22;7678;50.058;8.306;2023-06-01T11:19:17;25.60;55.60
15156;DHT22;7678;50.058;8.306;2023-06-01T11:21:48;25.30;53.90
15156;DHT22;7678;50.058;8.306;2023-06-01T11:24:24;25.50;55.20
15156;DHT22;7678;50.058;8.306;2023-06-01T11:26:53;26.20;54.30
15156;DHT22;7678;50.058;8.306;2023-06-01T11:29:22;26.00;54.50
15156;DHT22;7678;50.058;8.306;2023-06-01T11:31:53;25.70;54.00
15156;DHT22;7678;50.058;8.306;2023-06-01T11:34:30;25.40;53.90
15156;DHT22;7678;50.058;8.306;2023-06-01T11:36:59;25.80;54.80
15156;DHT22;7678;50.058;8.306;2023-06-01T11:39:29;25.80;54.00
15156;DHT22;7678;50.058;8.306;2023-06-01T11:42:05;26.30;53.70
15156;DHT22;7678;50.058;8.306;2023-06-01T11:44:35;26.50;51.80
15156;DHT22;7678;50.058;8.306;2023-06-01T11:47:04;26.00;52.80
15156;DHT22;7678;50.058;8.306;2023-06-01T11:49:40;25.80;52.70
15156;DHT22;7678;50.058;8.306;2023-06-01T11:52:10;26.40;51.90
15156;DHT22;7678;50.058;8.306;2023-06-01T11:54:40;26.40;52.60
15156;DHT22;7678;50.058;8.306;2023-06-01T11:57:08;26.40;53.50
15156;DHT22;7678;50.058;8.306;2023-06-01T11:59:37;26.80;53.20
15156;DHT22;7678;50.058;8.306;2023-06-01T12:02:17;26.70;51.40
15156;DHT22;7678;50.058;8.306;2023-06-01T12:04:57;27.00;50.80
15156;DHT22;7678;50.058;8.306;2023-06-01T12:07:26;27.10;51.30
15156;DHT22;7678;50.058;8.306;2023-06-01T12:09:56;26.70;50.60
15156;DHT22;7678;50.058;8.306;2023-06-01T12:12:27;26.90;51.90
15156;DHT22;7678;50.058;8.306;2023-06-01T12:14:56;26.80;51.50
15156;DHT22;7678;50.058;8.306;2023-06-01T12:17:24;26.90;51.40
15156;DHT22;7678;50.058;8.306;2023-06-01T12:19:57;27.10;51.50
15156;DHT22;7678;50.058;8.306;2023-06-01T12:22:30;27.00;50.70
15156;DHT22;7678;50.058;8.306;2023-06-01T12:25:06;26.90;50.40
15156;DHT22;7678;50.058;8.306;2023-06-01T12:27:35;26.90;52.10
15156;DHT22;7678;50.058;8.306;2023-06-01T12:30:20;27.60;50.10
15156;DHT22;7678;50.058;8.306;2023-06-01T12:32:49;26.80;51.40
15156;DHT22;7678;50.058;8.306;2023-06-01T12:35:17;26.60;50.20
15156;DHT22;7678;50.058;8.306;2023-06-01T12:37:45;26.90;51.30
15156;DHT22;7678;50.058;8.306;2023-06-01T12:40:31;27.10;51.20
15156;DHT22;7678;50.058;8.306;2023-06-01T12:43:00;27.70;51.30
15156;DHT22;7678;50.058;8.306;2023-06-01T12:45:34;27.40;49.70
15156;DHT22;7678;50.058;8.306;2023-06-01T12:48:04;27.20;49.30
15156;DHT22;7678;50.058;8.306;2023-06-01T12:50:33;27.10;50.30
15156;DHT22;7678;50.058;8.306;2023-06-01T12:53:01;27.60;49.10
15156;DHT22;7678;50.058;8.306;2023-06-01T12:55:31;27.60;47.80
15156;DHT22;7678;50.058;8.306;2023-06-01T12:58:01;27.40;49.20
15156;DHT22;7678;50.058;8.306;2023-06-01T13:00:31;27.40;49.70
15156;DHT22;7678;50.058;8.306;2023-06-01T13:03:19;27.20;49.20
15156;DHT22;7678;50.058;8.306;2023-06-01T13:05:49;28.10;51.00
15156;DHT22;7678;50.058;8.306;2023-06-01T13:08:18;28.10;49.60
15156;DHT22;7678;50.058;8.306;2023-06-01T13:10:48;27.80;49.50
15156;DHT22;7678;50.058;8.306;2023-06-01T13:13:16;27.80;49.60
15156;DHT22;7678;50.058;8.306;2023-06-01T13:15:45;27.90;49.40
15156;DHT22;7678;50.058;8.306;2023-06-01T13:18:13;28.30;47.80
15156;DHT22;7678;50.058;8.306;2023-06-01T13:20:42;28.80;48.10
15156;DHT22;7678;50.058;8.306;2023-06-01T13:23:11;27.80;46.60
15156;DHT22;7678;50.058;8.306;2023-06-01T13:25:39;27.80;48.90
15156;DHT22;7678;50.058;8.306;2023-06-01T13:28:09;28.40;46.90
15156;DHT22;7678;50.058;8.306;2023-06-01T13:30:37;28.50;46.10
15156;DHT22;7678;50.058;8.306;2023-06-01T13:33:06;28.70;45.10
15156;DHT22;7678;50.058;8.306;2023-06-01T13:35:34;28.50;45.90
15156;DHT22;7678;50.058;8.306;2023-06-01T13:38:02;29.10;47.10
15156;DHT22;7678;50.058;8.306;2023-06-01T13:40:30;28.40;45.90
15156;DHT22;7678;50.058;8.306;2023-06-01T13:43:00;28.50;46.40
15156;DHT22;7678;50.058;8.306;2023-06-01T13:45:29;28.50;44.80
15156;DHT22;7678;50.058;8.306;2023-06-01T13:47:57;28.80;44.70
15156;DHT22;7678;50.058;8.306;2023-06-01T13:50:25;28.90;45.40
15156;DHT22;7678;50.058;8.306;2023-06-01T13:52:53;28.70;41.10
15156;DHT22;7678;50.058;8.306;2023-06-01T13:55:24;28.60;40.00
15156;DHT22;7678;50.058;8.306;2023-06-01T13:57:54;28.60;39.50
15156;DHT22;7678;50.058;8.306;2023-06-01T14:00:22;29.10;37.60
15156;DHT22;7678;50.058;8.306;2023-06-01T14:02:52;29.00;37.30
15156;DHT22;7678;50.058;8.306;2023-06-01T14:05:20;29.10;38.10
15156;DHT22;7678;50.058;8.306;2023-06-01T14:08:08;28.50;38.90
15156;DHT22;7678;50.058;8.306;2023-06-01T14:10:36;29.40;38.80
15156;DHT22;7678;50.058;8.306;2023-06-01T14:13:04;29.40;38.50
15156;DHT22;7678;50.058;8.306;2023-06-01T14:15:32;29.50;38.70
15156;DHT22;7678;50.058;8.306;2023-06-01T14:18:02;29.60;39.50
15156;DHT22;7678;50.058;8.306;2023-06-01T14:20:30;29.70;39.90
15156;DHT22;7678;50.058;8.306;2023-06-01T14:22:59;29.80;40.30
15156;DHT22;7678;50.058;8.306;2023-06-01T14:25:29;29.00;40.00
15156;DHT22;7678;50.058;8.306;2023-06-01T14:27:58;29.20;39.40
15156;DHT22;7678;50.058;8.306;2023-06-01T14:30:26;28.90;39.20
15156;DHT22;7678;50.058;8.306;2023-06-01T14:32:54;28.90;40.40
15156;DHT22;7678;50.058;8.306;2023-06-01T14:35:24;29.20;41.40
15156;DHT22;7678;50.058;8.306;2023-06-01T14:37:53;29.40;41.70
15156;DHT22;7678;50.058;8.306;2023-06-01T14:40:22;28.80;43.30
15156;DHT22;7678;50.058;8.306;2023-06-01T14:42:50;28.90;42.80
15156;DHT22;7678;50.058;8.306;2023-06-01T14:45:18;28.50;42.70
15156;DHT22;7678;50.058;8.306;2023-06-01T14:47:48;29.20;43.00
15156;DHT22;7678;50.058;8.306;2023-06-01T14:50:17;28.90;43.70
15156;DHT22;7678;50.058;8.306;2023-06-01T14:52:47;28.60;43.80
15156;DHT22;7678;50.058;8.306;2023-06-01T14:55:15;29.00;43.70
15156;DHT22;7678;50.058;8.306;2023-06-01T14:57:45;28.40;43.60
15156;DHT22;7678;50.058;8.306;2023-06-01T15:00:14;28.50;43.20
15156;DHT22;7678;50.058;8.306;2023-06-01T15:02:43;28.50;45.90
15156;DHT22;7678;50.058;8.306;2023-06-01T15:05:12;28.70;47.50
15156;DHT22;7678;50.058;8.306;2023-06-01T15:07:41;28.60;46.20
15156;DHT22;7678;50.058;8.306;2023-06-01T15:10:10;28.70;47.00
15156;DHT22;7678;50.058;8.306;2023-06-01T15:12:38;28.60;47.00
15156;DHT22;7678;50.058;8.306;2023-06-01T15:15:07;28.60;49.30
15156;DHT22;7678;50.058;8.306;2023-06-01T15:17:35;28.90;49.30
15156;DHT22;7678;50.058;8.306;2023-06-01T15:20:04;29.00;49.80
15156;DHT22;7678;50.058;8.306;2023-06-01T15:22:32;28.70;50.20
15156;DHT22;7678;50.058;8.306;2023-06-01T15:25:04;28.70;50.70
15156;DHT22;7678;50.058;8.306;2023-06-01T15:27:34;28.70;49.20
15156;DHT22;7678;50.058;8.306;2023-06-01T15:30:03;28.40;50.10
15156;DHT22;7678;50.058;8.306;2023-06-01T15:32:31;28.50;50.20
15156;DHT22;7678;50.058;8.306;2023-06-01T15:34:59;28.30;49.70
15156;DHT22;7678;50.058;8.306;2023-06-01T15:37:29;28.00;51.00
15156;DHT22;7678;50.058;8.306;2023-06-01T15:39:57;28.00;51.40
15156;DHT22;7678;50.058;8.306;2023-06-01T15:42:26;28.10;49.80
15156;DHT22;7678;50.058;8.306;2023-06-01T15:44:55;27.90;48.20
15156;DHT22;7678;50.058;8.306;2023-06-01T15:47:25;27.90;48.10
15156;DHT22;7678;50.058;8.306;2023-06-01T15:49:53;27.90;48.30
15156;DHT22;7678;50.058;8.306;2023-06-01T15:52:21;28.00;48.90
15156;DHT22;7678;50.058;8.306;2023-06-01T15:54:49;27.80;48.60
15156;DHT22;7678;50.058;8.306;2023-06-01T15:57:17;27.70;47.40
15156;DHT22;7678;50.058;8.306;2023-06-01T15:59:45;27.40;46.60
15156;DHT22;7678;50.058;8.306;2023-06-01T16:02:14;27.10;46.40
15156;DHT22;7678;50.058;8.306;2023-06-01T16:04:42;27.00;47.60
15156;DHT22;7678;50.058;8.306;2023-06-01T16:07:11;27.30;47.60